createdAt,value
2022-09-20T00:01:32.588Z,12.80
2022-09-20T00:04:02.483Z,12.80
2022-09-20T00:06:32.013Z,12.80
2022-09-20T00:09:01.507Z,12.80
2022-09-20T00:11:34.884Z,12.80
2022-09-20T00:14:06.356Z,12.80
2022-09-20T00:16:38.242Z,12.80
2022-09-20T00:19:06.013Z,12.80
2022-09-20T00:21:37.842Z,12.80
2022-09-20T00:24:06.047Z,12.80
2022-09-20T00:26:33.465Z,12.90
2022-09-20T00:29:01.756Z,12.80
2022-09-20T00:31:28.972Z,12.80
2022-09-20T00:34:18.762Z,12.80
2022-09-20T00:36:46.511Z,12.80
2022-09-20T00:39:16.049Z,12.80
2022-09-20T00:41:43.205Z,12.80
2022-09-20T00:44:48.249Z,12.80
2022-09-20T00:47:21.908Z,12.80
2022-09-20T00:49:52.258Z,12.80
2022-09-20T00:52:20.709Z,12.80
2022-09-20T00:54:48.569Z,12.80
2022-09-20T00:57:15.846Z,12.80
2022-09-20T00:59:47.857Z,12.80
2022-09-20T01:02:24.643Z,12.80
2022-09-20T01:04:52.124Z,12.80
2022-09-20T01:07:22.557Z,12.80
2022-09-20T01:09:50.797Z,12.80
2022-09-20T01:12:30.052Z,12.80
2022-09-20T01:14:59.046Z,12.90
2022-09-20T01:17:28.725Z,12.90
2022-09-20T01:20:14.831Z,12.90
2022-09-20T01:23:12.944Z,12.90
2022-09-20T01:26:16.836Z,12.90
2022-09-20T01:28:49.380Z,12.90
2022-09-20T01:31:35.346Z,12.90
2022-09-20T01:34:30.239Z,12.90
2022-09-20T01:37:28.069Z,12.90
2022-09-20T01:40:27.015Z,12.90
2022-09-20T01:43:11.228Z,12.90
2022-09-20T01:45:46.844Z,12.90
2022-09-20T01:48:40.505Z,12.80
2022-09-20T01:51:19.424Z,12.80
2022-09-20T01:54:35.776Z,12.80
2022-09-20T01:57:22.641Z,12.80
2022-09-20T02:00:15.857Z,12.80
2022-09-20T02:03:27.237Z,12.80
2022-09-20T02:06:16.098Z,12.70
2022-09-20T02:09:07.811Z,12.70
2022-09-20T02:11:56.390Z,12.60
2022-09-20T02:15:10.150Z,12.60
2022-09-20T02:18:05.013Z,12.60
2022-09-20T02:20:39.857Z,12.50
2022-09-20T02:23:24.525Z,12.50
2022-09-20T02:26:28.478Z,12.50
2022-09-20T02:29:24.980Z,12.50
2022-09-20T02:32:14.841Z,12.50
2022-09-20T02:35:04.466Z,12.50
2022-09-20T02:37:55.526Z,12.50
2022-09-20T02:40:41.504Z,12.50
2022-09-20T02:43:31.253Z,12.40
2022-09-20T02:46:26.848Z,12.40
2022-09-20T02:49:24.122Z,12.40
2022-09-20T02:52:24.150Z,12.40
2022-09-20T02:55:01.071Z,12.40
2022-09-20T02:57:45.168Z,12.40
2022-09-20T03:00:24.359Z,12.40
2022-09-20T03:03:20.605Z,12.40
2022-09-20T03:06:03.339Z,12.40
2022-09-20T03:09:36.182Z,12.40
2022-09-20T03:12:09.064Z,12.40
2022-09-20T03:15:25.010Z,12.50
2022-09-20T03:18:14.956Z,12.50
2022-09-20T03:21:01.858Z,12.50
2022-09-20T03:23:56.107Z,12.40
2022-09-20T03:26:57.075Z,12.50
2022-09-20T03:29:59.429Z,12.40
2022-09-20T03:32:26.497Z,12.40
2022-09-20T03:35:39.124Z,12.40
2022-09-20T03:39:02.506Z,12.50
2022-09-20T03:42:20.770Z,12.40
2022-09-20T03:45:05.792Z,12.40
2022-09-20T03:47:46.122Z,12.40
2022-09-20T03:51:02.512Z,12.40
2022-09-20T03:53:57.260Z,12.40
2022-09-20T03:56:52.364Z,12.40
2022-09-20T03:59:49.950Z,12.40
2022-09-20T04:02:44.854Z,12.50
2022-09-20T04:05:46.001Z,12.50
2022-09-20T04:08:53.411Z,12.50
2022-09-20T04:12:05.569Z,12.50
2022-09-20T04:14:50.569Z,12.50
2022-09-20T04:18:02.002Z,12.50
2022-09-20T04:21:00.973Z,12.50
2022-09-20T04:23:51.589Z,12.50
2022-09-20T04:26:29.322Z,12.50
2022-09-20T04:29:41.005Z,12.50
2022-09-20T04:32:34.667Z,12.50
2022-09-20T04:35:56.348Z,12.50
2022-09-20T04:38:23.934Z,12.50
2022-09-20T04:41:38.654Z,12.50
2022-09-20T04:44:41.817Z,12.50
2022-09-20T04:47:50.661Z,12.50
2022-09-20T04:50:42.892Z,12.40
2022-09-20T04:53:51.578Z,12.40
2022-09-20T04:56:43.625Z,12.40
2022-09-20T04:59:53.745Z,12.40
2022-09-20T05:03:04.192Z,12.40
2022-09-20T05:05:48.029Z,12.40
2022-09-20T05:08:58.800Z,12.40
2022-09-20T05:11:42.438Z,12.30
2022-09-20T05:14:34.865Z,12.30
2022-09-20T05:17:56.109Z,12.30
2022-09-20T05:20:54.839Z,12.30
2022-09-20T05:23:52.772Z,12.30
2022-09-20T05:26:44.672Z,12.30
2022-09-20T05:29:42.552Z,12.30
2022-09-20T05:32:41.969Z,12.30
2022-09-20T05:35:31.449Z,12.30
2022-09-20T05:38:34.881Z,12.30
2022-09-20T05:41:19.149Z,12.30
2022-09-20T05:44:31.516Z,12.40
2022-09-20T05:47:22.306Z,12.40
2022-09-20T05:50:25.230Z,12.40
2022-09-20T05:53:25.141Z,12.40
2022-09-20T05:56:26.945Z,12.50
2022-09-20T05:59:30.907Z,12.50
2022-09-20T06:02:32.012Z,12.50
2022-09-20T06:05:15.982Z,12.60
2022-09-20T06:08:09.120Z,12.60
2022-09-20T06:10:47.557Z,12.60
2022-09-20T06:13:34.032Z,12.70
2022-09-20T06:16:04.608Z,12.70
2022-09-20T06:18:55.730Z,12.70
2022-09-20T06:22:03.037Z,12.80
2022-09-20T06:25:01.152Z,12.80
2022-09-20T06:27:49.891Z,12.90
2022-09-20T06:30:41.004Z,12.90
2022-09-20T06:33:26.111Z,12.90
2022-09-20T06:36:25.626Z,13.00
2022-09-20T06:39:30.832Z,13.00
2022-09-20T06:41:58.055Z,13.10
2022-09-20T06:44:25.147Z,13.10
2022-09-20T06:46:55.823Z,13.10
2022-09-20T06:49:29.313Z,13.20
2022-09-20T06:51:57.563Z,13.30
2022-09-20T06:54:27.155Z,13.30
2022-09-20T06:56:54.895Z,13.30
2022-09-20T06:59:22.209Z,13.30
2022-09-20T07:01:49.556Z,13.40
2022-09-20T07:04:16.834Z,13.40
2022-09-20T07:06:44.060Z,13.40
2022-09-20T07:09:12.230Z,13.40
2022-09-20T07:11:39.265Z,13.40
2022-09-20T07:14:08.074Z,13.50
2022-09-20T07:16:36.452Z,13.50
2022-09-20T07:19:06.710Z,13.50
2022-09-20T07:21:33.838Z,13.50
2022-09-20T07:24:02.100Z,13.50
2022-09-20T07:26:31.113Z,13.50
2022-09-20T07:28:59.549Z,13.60
2022-09-20T07:31:28.730Z,13.60
2022-09-20T07:33:56.120Z,13.70
2022-09-20T07:36:23.467Z,13.70
2022-09-20T07:38:53.105Z,13.70
2022-09-20T07:41:22.867Z,13.80
2022-09-20T07:43:51.234Z,13.90
2022-09-20T07:46:20.244Z,13.90
2022-09-20T07:48:47.434Z,14.00
2022-09-20T07:51:14.550Z,14.10
2022-09-20T07:53:42.210Z,14.20
2022-09-20T07:56:15.765Z,14.20
2022-09-20T07:58:49.895Z,14.30
2022-09-20T08:01:21.073Z,14.40
2022-09-20T08:03:48.558Z,14.40
2022-09-20T08:06:16.493Z,14.50
2022-09-20T08:08:43.950Z,14.60
2022-09-20T08:11:22.451Z,14.60
2022-09-20T08:14:09.212Z,14.70
2022-09-20T08:16:47.299Z,14.70
2022-09-20T08:19:21.211Z,14.80
2022-09-20T08:21:50.171Z,14.80
2022-09-20T08:24:17.902Z,14.80
2022-09-20T08:26:45.421Z,14.90
2022-09-20T08:29:15.091Z,14.90
2022-09-20T08:31:43.318Z,15.00
2022-09-20T08:34:14.036Z,15.10
2022-09-20T08:36:46.821Z,15.20
2022-09-20T08:42:27.298Z,15.40
2022-09-20T08:45:01.633Z,15.50
2022-09-20T08:47:35.973Z,15.70
2022-09-20T08:50:10.004Z,15.80
2022-09-20T08:52:40.897Z,15.90
2022-09-20T08:55:20.752Z,15.90
2022-09-20T08:57:56.842Z,16.00
2022-09-20T09:00:29.635Z,15.90
2022-09-20T09:03:00.292Z,15.90
2022-09-20T09:05:43.314Z,15.90
2022-09-20T09:08:19.007Z,16.00
2022-09-20T09:10:54.998Z,16.10
2022-09-20T09:13:35.076Z,16.20
2022-09-20T09:16:14.954Z,16.20
2022-09-20T09:18:45.987Z,16.30
2022-09-20T09:21:33.760Z,16.30
2022-09-20T09:24:17.052Z,16.30
2022-09-20T09:26:44.534Z,16.30
2022-09-20T09:29:23.403Z,16.40
2022-09-20T09:31:54.879Z,16.50
2022-09-20T09:34:29.664Z,16.60
2022-09-20T09:36:58.230Z,16.80
2022-09-20T09:39:35.877Z,16.90
2022-09-20T09:42:28.884Z,17.00
2022-09-20T09:45:28.253Z,17.10
2022-09-20T09:47:57.029Z,17.10
2022-09-20T09:50:32.043Z,17.10
2022-09-20T09:53:20.895Z,17.10
2022-09-20T09:56:04.162Z,17.00
2022-09-20T09:59:15.276Z,17.00
2022-09-20T10:02:13.187Z,16.90
2022-09-20T10:05:07.254Z,16.80
2022-09-20T10:08:01.828Z,16.70
2022-09-20T10:11:07.118Z,16.70
2022-09-20T10:13:48.909Z,16.70
2022-09-20T10:16:53.227Z,16.80
2022-09-20T10:20:22.928Z,16.90
2022-09-20T10:23:24.186Z,17.00
2022-09-20T10:25:55.126Z,17.10
2022-09-20T10:28:34.050Z,17.30
2022-09-20T10:31:28.950Z,17.40
2022-09-20T10:34:14.293Z,17.60
2022-09-20T10:36:54.160Z,17.70
2022-09-20T10:39:43.964Z,17.80
2022-09-20T10:43:16.170Z,18.00
2022-09-20T10:46:35.129Z,18.10
2022-09-20T10:49:43.045Z,18.30
2022-09-20T10:52:20.634Z,18.50
2022-09-20T10:55:27.445Z,18.70
2022-09-20T10:58:04.484Z,18.80
2022-09-20T11:01:03.909Z,18.80
2022-09-20T11:03:36.606Z,18.90
2022-09-20T11:06:37.830Z,18.90
2022-09-20T11:09:13.882Z,19.00
2022-09-20T11:11:49.737Z,19.10
2022-09-20T11:14:23.567Z,19.10
2022-09-20T11:16:54.719Z,19.10
2022-09-20T11:20:16.682Z,19.10
2022-09-20T11:23:00.216Z,19.20
2022-09-20T11:25:55.836Z,19.20
2022-09-20T11:28:37.909Z,19.30
2022-09-20T11:31:30.717Z,19.30
2022-09-20T11:34:45.612Z,19.20
2022-09-20T11:37:12.682Z,19.20
2022-09-20T11:39:56.069Z,19.10
2022-09-20T11:42:32.561Z,18.90
2022-09-20T11:44:59.898Z,18.80
2022-09-20T11:47:53.805Z,18.70
2022-09-20T11:50:56.645Z,18.60
2022-09-20T11:54:12.806Z,18.50
2022-09-20T11:56:40.262Z,18.50
2022-09-20T11:59:32.433Z,18.50
2022-09-20T12:02:02.928Z,18.50
2022-09-20T12:04:35.493Z,18.60
2022-09-20T12:07:18.391Z,18.60
2022-09-20T12:10:35.487Z,18.60
2022-09-20T12:13:07.717Z,18.60
2022-09-20T12:15:39.906Z,18.60
2022-09-20T12:18:33.137Z,18.70
2022-09-20T12:21:18.483Z,18.70
2022-09-20T12:24:01.485Z,18.90
2022-09-20T12:26:28.483Z,19.00
2022-09-20T12:28:59.939Z,19.10
2022-09-20T12:31:31.980Z,19.10
2022-09-20T12:34:15.951Z,19.20
2022-09-20T12:36:55.607Z,19.20
2022-09-20T12:39:30.598Z,19.20
2022-09-20T12:42:31.690Z,19.30
2022-09-20T12:45:05.493Z,19.30
2022-09-20T12:47:36.583Z,19.30
2022-09-20T12:50:33.336Z,19.40
2022-09-20T12:53:04.317Z,19.40
2022-09-20T12:55:52.970Z,19.30
2022-09-20T12:58:24.205Z,19.20
2022-09-20T13:01:14.334Z,19.10
2022-09-20T13:03:42.812Z,18.90
2022-09-20T13:06:12.015Z,18.70
2022-09-20T13:09:00.209Z,18.60
2022-09-20T13:11:39.888Z,18.50
2022-09-20T13:14:18.378Z,18.40
2022-09-20T13:17:13.684Z,18.40
2022-09-20T13:19:46.849Z,18.50
2022-09-20T13:22:31.394Z,18.60
2022-09-20T13:25:02.810Z,18.70
2022-09-20T13:27:36.410Z,18.80
2022-09-20T13:30:25.682Z,18.80
2022-09-20T13:32:53.490Z,18.80
2022-09-20T13:35:28.176Z,18.70
2022-09-20T13:38:02.895Z,18.70
2022-09-20T13:40:47.894Z,18.60
2022-09-20T13:43:36.890Z,18.50
2022-09-20T13:46:32.256Z,18.40
2022-09-20T13:49:21.439Z,18.40
2022-09-20T13:51:49.899Z,18.30
2022-09-20T13:54:33.477Z,18.30
2022-09-20T13:57:12.029Z,18.40
2022-09-20T13:59:47.008Z,18.40
2022-09-20T14:02:30.191Z,18.50
2022-09-20T14:05:04.673Z,18.40
2022-09-20T14:07:32.495Z,18.40
2022-09-20T14:10:00.459Z,18.30
2022-09-20T14:12:28.055Z,18.20
2022-09-20T14:14:56.108Z,18.10
2022-09-20T14:17:24.951Z,18.00
2022-09-20T14:19:57.779Z,18.00
2022-09-20T14:22:28.394Z,17.90
2022-09-20T14:25:25.467Z,17.90
2022-09-20T14:28:18.608Z,17.90
2022-09-20T14:30:48.081Z,17.80
2022-09-20T14:33:21.417Z,17.70
2022-09-20T14:35:52.299Z,17.60
2022-09-20T14:38:26.056Z,17.40
2022-09-20T14:40:54.020Z,17.10
2022-09-20T14:43:34.728Z,16.90
2022-09-20T14:46:15.713Z,16.70
2022-09-20T14:48:44.632Z,16.50
2022-09-20T14:51:25.734Z,16.40
2022-09-20T14:54:30.097Z,16.20
2022-09-20T14:57:01.822Z,16.00
2022-09-20T14:59:38.096Z,16.00
2022-09-20T15:02:14.774Z,15.90
2022-09-20T15:04:54.085Z,15.90
2022-09-20T15:07:21.355Z,15.90
2022-09-20T15:09:48.477Z,15.80
2022-09-20T15:12:19.179Z,15.80
2022-09-20T15:14:47.233Z,15.90
2022-09-20T15:17:21.950Z,15.90
2022-09-20T15:19:50.343Z,15.90
2022-09-20T15:22:17.804Z,15.80
2022-09-20T15:24:45.324Z,15.80
2022-09-20T15:27:13.015Z,15.80
2022-09-20T15:29:40.350Z,15.80
2022-09-20T15:32:10.473Z,15.90
2022-09-20T15:34:37.820Z,15.90
2022-09-20T15:37:05.020Z,15.90
2022-09-20T15:39:32.204Z,15.90
2022-09-20T15:41:59.220Z,15.90
2022-09-20T15:44:26.390Z,16.10
2022-09-20T15:46:53.769Z,16.40
2022-09-20T15:49:21.739Z,16.80
2022-09-20T15:51:48.952Z,17.40
2022-09-20T15:54:16.395Z,18.00
2022-09-20T15:56:43.639Z,18.70
2022-09-20T15:59:13.453Z,19.30
2022-09-20T16:01:44.856Z,19.80
2022-09-20T16:04:15.614Z,20.30
2022-09-20T16:06:46.905Z,20.60
2022-09-20T16:09:14.570Z,20.60
2022-09-20T16:11:42.022Z,20.50
2022-09-20T16:14:09.201Z,20.30
2022-09-20T16:16:40.457Z,20.00
2022-09-20T16:19:22.394Z,19.60
2022-09-20T16:21:59.379Z,19.30
2022-09-20T16:24:34.107Z,18.90
2022-09-20T16:27:04.230Z,18.60
2022-09-20T16:29:32.317Z,18.30
2022-09-20T16:32:01.742Z,18.00
2022-09-20T16:34:34.678Z,17.70
2022-09-20T16:37:11.936Z,17.50
2022-09-20T16:39:40.410Z,17.30
2022-09-20T16:42:10.650Z,17.10
2022-09-20T16:44:40.233Z,17.00
2022-09-20T16:47:12.312Z,16.80
2022-09-20T16:49:39.730Z,16.70
2022-09-20T16:52:09.302Z,16.50
2022-09-20T16:54:37.307Z,16.40
2022-09-20T16:57:05.232Z,16.30
2022-09-20T16:59:32.677Z,16.10
2022-09-20T17:01:59.798Z,16.00
2022-09-20T17:04:26.807Z,15.90
2022-09-20T17:06:54.243Z,15.70
2022-09-20T17:09:21.421Z,15.60
2022-09-20T17:11:51.432Z,15.50
2022-09-20T17:14:20.892Z,15.40
2022-09-20T17:16:49.229Z,15.30
2022-09-20T17:19:20.060Z,15.20
2022-09-20T17:21:50.644Z,15.20
2022-09-20T17:24:23.309Z,15.10
2022-09-20T17:26:51.731Z,15.00
2022-09-20T17:29:20.789Z,14.90
2022-09-20T17:31:56.126Z,14.90
2022-09-20T17:34:28.214Z,14.80
2022-09-20T17:36:55.532Z,14.80
2022-09-20T17:39:23.425Z,14.70
2022-09-20T17:41:51.210Z,14.60
2022-09-20T17:44:18.782Z,14.60
2022-09-20T17:46:49.950Z,14.60
2022-09-20T17:49:21.237Z,14.50
2022-09-20T17:51:49.522Z,14.50
2022-09-20T17:54:17.579Z,14.40
2022-09-20T17:56:51.300Z,14.40
2022-09-20T17:59:20.103Z,14.40
2022-09-20T18:01:50.114Z,14.40
2022-09-20T18:04:17.810Z,14.30
2022-09-20T18:06:50.579Z,14.30
2022-09-20T18:09:21.423Z,14.30
2022-09-20T18:11:51.639Z,14.30
2022-09-20T18:14:23.211Z,14.20
2022-09-20T18:16:58.163Z,14.20
2022-09-20T18:19:32.363Z,14.20
2022-09-20T18:22:00.979Z,14.10
2022-09-20T18:24:28.174Z,14.10
2022-09-20T18:26:55.292Z,14.00
2022-09-20T18:29:22.382Z,14.00
2022-09-20T18:31:58.017Z,14.00
2022-09-20T18:34:31.109Z,14.00
2022-09-20T18:37:00.457Z,13.90
2022-09-20T18:39:32.553Z,13.90
2022-09-20T18:42:00.778Z,13.90
2022-09-20T18:44:30.566Z,13.90
2022-09-20T18:46:59.892Z,13.90
2022-09-20T18:49:27.591Z,13.90
2022-09-20T18:51:54.636Z,13.90
2022-09-20T18:54:21.895Z,13.90
2022-09-20T18:56:51.349Z,13.90
2022-09-20T18:59:20.792Z,13.80
2022-09-20T19:02:12.922Z,13.80
2022-09-20T19:05:14.127Z,13.80
2022-09-20T19:08:18.545Z,13.80
2022-09-20T19:10:58.822Z,13.70
2022-09-20T19:13:48.699Z,13.70
2022-09-20T19:16:22.993Z,13.70
2022-09-20T19:19:14.710Z,13.70
2022-09-20T19:22:12.490Z,13.70
2022-09-20T19:25:02.655Z,13.70
2022-09-20T19:27:30.151Z,13.60
2022-09-20T19:29:57.650Z,13.60
2022-09-20T19:32:26.334Z,13.60
2022-09-20T19:34:56.320Z,13.50
2022-09-20T19:37:36.724Z,13.50
2022-09-20T19:40:32.992Z,13.50
2022-09-20T19:43:26.190Z,13.50
2022-09-20T19:46:48.288Z,13.40
2022-09-20T19:49:44.983Z,13.40
2022-09-20T19:52:13.836Z,13.40
2022-09-20T19:54:46.814Z,13.40
2022-09-20T19:57:33.887Z,13.40
2022-09-20T20:00:01.235Z,13.40
2022-09-20T20:02:28.812Z,13.30
2022-09-20T20:04:56.307Z,13.30
2022-09-20T20:07:24.888Z,13.30
2022-09-20T20:10:02.818Z,13.30
2022-09-20T20:12:53.456Z,13.30
2022-09-20T20:15:43.703Z,13.20
2022-09-20T20:18:26.243Z,13.20
2022-09-20T20:20:57.030Z,13.20
2022-09-20T20:24:05.728Z,13.20
2022-09-20T20:26:33.160Z,13.10
2022-09-20T20:29:00.347Z,13.10
2022-09-20T20:31:27.405Z,13.00
2022-09-20T20:33:54.812Z,13.00
2022-09-20T20:36:21.959Z,13.00
2022-09-20T20:38:53.208Z,12.90
2022-09-20T20:41:21.909Z,12.90
2022-09-20T20:43:57.235Z,12.90
2022-09-20T20:46:25.174Z,12.80
2022-09-20T20:48:52.391Z,12.80
2022-09-20T20:51:22.797Z,12.80
2022-09-20T20:53:52.743Z,12.80
2022-09-20T20:56:26.831Z,12.80
2022-09-20T20:58:54.980Z,12.70
2022-09-20T21:01:32.198Z,12.70
2022-09-20T21:04:01.117Z,12.70
2022-09-20T21:06:37.319Z,12.60
2022-09-20T21:09:11.979Z,12.60
2022-09-20T21:11:44.413Z,12.60
2022-09-20T21:14:13.105Z,12.60
2022-09-20T21:16:43.534Z,12.50
2022-09-20T21:19:15.946Z,12.50
2022-09-20T21:21:46.257Z,12.50
2022-09-20T21:24:17.463Z,12.50
2022-09-20T21:26:46.209Z,12.40
2022-09-20T21:29:16.179Z,12.40
2022-09-20T21:31:45.974Z,12.40
2022-09-20T21:34:15.528Z,12.30
2022-09-20T21:36:44.901Z,12.30
2022-09-20T21:39:12.856Z,12.20
2022-09-20T21:41:41.168Z,12.20
2022-09-20T21:44:12.396Z,12.10
2022-09-20T21:46:41.604Z,12.10
2022-09-20T21:49:11.792Z,12.00
2022-09-20T21:51:42.143Z,12.00
2022-09-20T21:54:09.787Z,11.90
2022-09-20T21:56:39.098Z,11.90
2022-09-20T21:59:07.854Z,11.80
2022-09-20T22:01:38.471Z,11.80
2022-09-20T22:04:11.693Z,11.80
2022-09-20T22:06:42.374Z,11.70
2022-09-20T22:09:14.558Z,11.70
2022-09-20T22:11:45.216Z,11.70
2022-09-20T22:14:14.040Z,11.60
2022-09-20T22:16:43.653Z,11.60
2022-09-20T22:19:13.443Z,11.50
2022-09-20T22:21:44.354Z,11.50
2022-09-20T22:24:13.748Z,11.50
2022-09-20T22:26:43.417Z,11.40
2022-09-20T22:29:11.410Z,11.40
2022-09-20T22:31:45.265Z,11.30
2022-09-20T22:34:20.105Z,11.30
2022-09-20T22:36:47.826Z,11.20
2022-09-20T22:39:16.062Z,11.20
2022-09-20T22:41:44.537Z,11.10
2022-09-20T22:44:12.100Z,11.10
2022-09-20T22:46:39.933Z,11.00
2022-09-20T22:49:08.926Z,11.00
2022-09-20T22:51:37.471Z,10.90
2022-09-20T22:54:10.970Z,10.90
2022-09-20T22:56:39.697Z,10.90
2022-09-20T22:59:13.249Z,10.80
2022-09-20T23:01:46.654Z,10.80
2022-09-20T23:04:20.226Z,10.80
2022-09-20T23:06:54.706Z,10.70
2022-09-20T23:09:25.652Z,10.70
2022-09-20T23:11:52.712Z,10.70
2022-09-20T23:14:21.972Z,10.60
2022-09-20T23:16:49.495Z,10.60
2022-09-20T23:19:17.186Z,10.50
2022-09-20T23:21:44.816Z,10.50
2022-09-20T23:24:14.635Z,10.50
2022-09-20T23:26:43.410Z,10.40
2022-09-20T23:29:16.809Z,10.40
2022-09-20T23:31:47.253Z,10.40
2022-09-20T23:34:16.088Z,10.40
2022-09-20T23:36:44.723Z,10.30
2022-09-20T23:39:13.177Z,10.30
2022-09-20T23:41:41.494Z,10.30
2022-09-20T23:44:10.300Z,10.30
2022-09-20T23:46:38.559Z,10.20
2022-09-20T23:49:06.868Z,10.20
2022-09-20T23:51:35.462Z,10.20
2022-09-20T23:54:03.073Z,10.20
2022-09-20T23:56:30.651Z,10.20
2022-09-20T23:58:57.804Z,10.20
